Alexander Bay, South Africa
Current Conditions -  °F | °C
As of 8:00 AM on Tuesday 21 Oct 2014 (Local Time) from FAUP Reporting Station
Clear Clear  
Wind Chill: 70°   Ceiling: Unl
Heat Index: 70°   Visibility: 6mi
Dew Point: 39°   Wind: 8mph
Humidity: 33%   Direction: 210°SSW
Pressure: 29.97"   Gusts: NA
Location:  28.6°S, 16.49°E
Report Text: FAUP 210600Z 21007KT CAVOK 21/04 Q1015 NOSIG
Loading
Personal Weather Stations






























Interactive Weather Map
Tropical Storm Tracking
New forecast layout! Learn more

10-Day Weather Forecast

Advertisements
Track Severe Weather on mobile